Time;durP1;ratioP1;P1;durP2;ratioP2;P2;SDS_P1;SDS_P2;PMS_P1;PMS_P2;Temp;Humidity;BMP_temperature;BMP_pressure;BME280_temperature;BME280_humidity;BME280_pressure;Samples;Min_cycle;Max_cycle;Signal;HPM_P1;HPM_P2
2023/05/07 00:00:33;;;;;;;;;;;19.10;52.50;;;;;;5009774;28;19909;-67
2023/05/07 00:02:59;;;;;;;;;;;19.00;52.50;;;;;;5009247;28;19917;-66
2023/05/07 00:05:24;;;;;;;;;;;19.00;52.50;;;;;;5009311;28;19921;-67
2023/05/07 00:07:50;;;;;;;;;;;19.00;52.50;;;;;;5008455;28;19918;-66
2023/05/07 00:10:15;;;;;;;;;;;19.00;52.50;;;;;;5010009;28;19980;-66
2023/05/07 00:12:41;;;;;;;;;;;19.00;52.60;;;;;;5009263;28;19918;-66
2023/05/07 00:15:06;;;;;;;;;;;18.90;52.70;;;;;;4992469;28;19905;-66
2023/05/07 00:17:32;;;;;;;;;;;18.80;52.80;;;;;;5024258;28;19980;-67
2023/05/07 00:19:58;;;;;;;;;;;18.80;52.90;;;;;;5029656;28;19943;-66
2023/05/07 00:22:23;;;;;;;;;;;18.70;53.10;;;;;;5028478;28;20316;-66
2023/05/07 00:24:49;;;;;;;;;;;18.80;53.10;;;;;;5029248;28;19917;-66
2023/05/07 00:27:14;;;;;;;;;;;18.80;53.00;;;;;;5027801;28;19909;-66
2023/05/07 00:29:40;;;;;;;;;;;18.80;53.00;;;;;;5029057;28;20016;-66
2023/05/07 00:32:05;;;;;;;;;;;18.70;53.00;;;;;;4999706;28;19974;-66
2023/05/07 00:34:31;;;;;;;;;;;18.80;53.00;;;;;;5013598;28;19984;-66
2023/05/07 00:36:56;;;;;;;;;;;18.70;53.00;;;;;;5005932;28;19910;-66
2023/05/07 00:39:22;;;;;;;;;;;18.70;53.10;;;;;;4994204;28;19925;-66
2023/05/07 00:41:47;;;;;;;;;;;18.80;53.10;;;;;;4993704;28;19914;-66
2023/05/07 00:44:14;;;;;;;;;;;18.70;53.00;;;;;;4994203;28;19922;-67
2023/05/07 00:46:40;;;;;;;;;;;18.70;53.00;;;;;;4993698;28;19914;-66
2023/05/07 00:49:05;;;;;;;;;;;18.70;53.00;;;;;;5000238;28;20013;-66
2023/05/07 00:51:32;;;;;;;;;;;18.70;53.00;;;;;;5004739;28;19938;-67
2023/05/07 00:53:58;;;;;;;;;;;18.70;53.10;;;;;;5004603;28;19922;-66
2023/05/07 00:56:23;;;;;;;;;;;18.70;53.10;;;;;;5005386;28;19914;-66
2023/05/07 00:58:49;;;;;;;;;;;18.60;53.10;;;;;;5001737;28;19929;-66
2023/05/07 01:01:16;;;;;;;;;;;18.60;53.20;;;;;;4985572;28;19972;-61
2023/05/07 01:03:42;;;;;;;;;;;18.50;53.30;;;;;;4985074;28;19918;-62
2023/05/07 01:06:07;;;;;;;;;;;18.50;53.30;;;;;;4977503;28;19925;-62
2023/05/07 01:08:34;;;;;;;;;;;18.50;53.30;;;;;;4976301;28;19918;-62
2023/05/07 01:11:00;;;;;;;;;;;18.50;53.40;;;;;;4981651;28;20290;-62
2023/05/07 01:13:26;;;;;;;;;;;18.50;53.40;;;;;;4987809;28;19918;-62
2023/05/07 01:15:52;;;;;;;;;;;18.40;53.50;;;;;;4978128;28;19914;-62
2023/05/07 01:18:17;;;;;;;;;;;18.40;53.40;;;;;;4983863;28;20284;-62
2023/05/07 01:20:43;;;;;;;;;;;18.40;53.40;;;;;;4987329;28;19953;-62
2023/05/07 01:23:10;;;;;;;;;;;18.40;53.50;;;;;;4975199;28;19918;-62
2023/05/07 01:25:35;;;;;;;;;;;18.40;53.50;;;;;;4977060;28;19918;-63
2023/05/07 01:28:01;;;;;;;;;;;18.40;53.50;;;;;;4977600;28;19984;-63
2023/05/07 01:30:27;;;;;;;;;;;18.40;53.50;;;;;;4988494;28;19966;-62
2023/05/07 01:32:56;;;;;;;;;;;18.40;53.60;;;;;;4979426;28;19918;-62
2023/05/07 01:35:24;;;;;;;;;;;18.30;53.60;;;;;;4993932;28;19913;-62
2023/05/07 01:37:50;;;;;;;;;;;18.40;53.50;;;;;;4984218;28;20465;-62
2023/05/07 01:40:16;;;;;;;;;;;18.30;53.60;;;;;;4975831;28;20008;-62
2023/05/07 01:42:42;;;;;;;;;;;18.30;53.60;;;;;;4990926;28;20325;-62
2023/05/07 01:45:08;;;;;;;;;;;18.30;53.50;;;;;;4980284;28;20012;-62
2023/05/07 01:47:34;;;;;;;;;;;18.30;53.70;;;;;;4993690;28;20405;-62
2023/05/07 01:50:00;;;;;;;;;;;18.30;53.70;;;;;;4993669;28;19917;-62
2023/05/07 01:52:27;;;;;;;;;;;18.30;53.80;;;;;;4994168;28;19964;-62
2023/05/07 01:54:52;;;;;;;;;;;18.30;53.80;;;;;;4993898;28;19920;-62
2023/05/07 01:57:17;;;;;;;;;;;18.20;53.90;;;;;;4993833;28;19921;-62
2023/05/07 01:59:43;;;;;;;;;;;18.20;54.00;;;;;;4993769;28;19952;-62
2023/05/07 02:02:08;;;;;;;;;;;18.20;53.90;;;;;;4985101;28;20001;-62
2023/05/07 02:04:34;;;;;;;;;;;18.20;54.10;;;;;;4974824;28;19918;-62
2023/05/07 02:06:59;;;;;;;;;;;18.20;54.10;;;;;;4979917;28;19925;-66
2023/05/07 02:09:24;;;;;;;;;;;18.20;54.10;;;;;;4971869;28;19925;-67
2023/05/07 02:11:50;;;;;;;;;;;18.20;54.10;;;;;;4989549;28;19914;-67
2023/05/07 02:14:15;;;;;;;;;;;18.10;54.10;;;;;;4989803;28;19922;-66
2023/05/07 02:16:41;;;;;;;;;;;18.20;54.10;;;;;;4990544;28;19914;-66
2023/05/07 02:19:06;;;;;;;;;;;18.20;54.10;;;;;;4989187;28;19914;-66
2023/05/07 02:21:32;;;;;;;;;;;18.20;54.10;;;;;;4993668;28;19973;-67
2023/05/07 02:23:57;;;;;;;;;;;18.20;54.10;;;;;;4998347;28;19929;-66
2023/05/07 02:26:23;;;;;;;;;;;18.20;54.10;;;;;;4989603;28;19914;-67
2023/05/07 02:28:48;;;;;;;;;;;18.20;54.10;;;;;;4997519;28;20009;-66
2023/05/07 02:31:14;;;;;;;;;;;18.10;54.10;;;;;;5008369;28;19909;-66
2023/05/07 02:33:39;;;;;;;;;;;18.10;54.10;;;;;;4982382;28;20373;-66
2023/05/07 02:36:05;;;;;;;;;;;18.10;54.10;;;;;;4988316;28;19936;-66
2023/05/07 02:38:31;;;;;;;;;;;18.10;54.00;;;;;;4996100;28;19918;-66
2023/05/07 02:40:56;;;;;;;;;;;18.10;54.10;;;;;;5009117;28;19917;-67
2023/05/07 02:43:22;;;;;;;;;;;18.00;54.30;;;;;;5006231;28;19922;-67
2023/05/07 02:45:47;;;;;;;;;;;18.00;54.20;;;;;;4989505;28;19979;-67
2023/05/07 02:48:12;;;;;;;;;;;18.00;54.20;;;;;;4988995;28;20368;-66
2023/05/07 02:50:38;;;;;;;;;;;18.00;54.20;;;;;;4997807;28;19925;-67
2023/05/07 02:53:03;;;;;;;;;;;18.00;54.20;;;;;;4992869;28;19929;-66
2023/05/07 02:55:29;;;;;;;;;;;17.90;54.30;;;;;;4988771;28;20119;-67
2023/05/07 02:57:54;;;;;;;;;;;18.00;54.20;;;;;;4992699;28;19925;-66
2023/05/07 03:00:20;;;;;;;;;;;17.90;54.20;;;;;;5008683;28;19910;-67
2023/05/07 03:02:45;;;;;;;;;;;17.90;54.20;;;;;;5005779;28;19918;-66
2023/05/07 03:05:12;;;;;;;;;;;17.90;54.20;;;;;;5006764;28;19924;-67
2023/05/07 03:07:37;;;;;;;;;;;17.90;54.30;;;;;;5006059;28;19914;-67
2023/05/07 03:10:03;;;;;;;;;;;17.90;54.30;;;;;;5005775;28;19952;-67
2023/05/07 03:12:29;;;;;;;;;;;17.90;54.30;;;;;;5005629;28;19910;-67
2023/05/07 03:14:54;;;;;;;;;;;17.90;54.20;;;;;;5005280;28;19945;-66
2023/05/07 03:17:20;;;;;;;;;;;17.90;54.20;;;;;;5005935;28;19925;-66
2023/05/07 03:19:45;;;;;;;;;;;17.80;54.30;;;;;;5005252;28;19914;-66
2023/05/07 03:22:11;;;;;;;;;;;17.90;54.30;;;;;;5006066;28;19918;-66
2023/05/07 03:24:36;;;;;;;;;;;17.80;54.40;;;;;;5005223;28;19941;-66
2023/05/07 03:27:02;;;;;;;;;;;17.80;54.50;;;;;;5007062;28;19918;-66
2023/05/07 03:29:27;;;;;;;;;;;17.80;54.50;;;;;;5007123;28;19922;-67
2023/05/07 03:31:53;;;;;;;;;;;17.70;54.60;;;;;;5007431;28;19914;-66
2023/05/07 03:34:21;;;;;;;;;;;17.70;54.60;;;;;;5006659;28;19918;-66
2023/05/07 03:36:50;;;;;;;;;;;17.70;54.60;;;;;;5006937;28;19913;-66
2023/05/07 03:39:15;;;;;;;;;;;17.70;54.60;;;;;;5006683;28;19977;-66
2023/05/07 03:41:41;;;;;;;;;;;17.60;54.80;;;;;;5006080;28;20362;-67
2023/05/07 03:44:06;;;;;;;;;;;17.60;54.80;;;;;;5005590;28;19940;-67
2023/05/07 03:46:32;;;;;;;;;;;17.60;54.90;;;;;;5006742;28;19998;-66
2023/05/07 03:48:58;;;;;;;;;;;17.60;54.80;;;;;;5006672;28;19925;-67
2023/05/07 03:51:23;;;;;;;;;;;17.60;54.80;;;;;;5004835;28;19909;-66
2023/05/07 03:53:49;;;;;;;;;;;17.50;54.90;;;;;;5005901;28;19922;-66
2023/05/07 03:56:14;;;;;;;;;;;17.50;54.90;;;;;;5005410;28;20029;-67
2023/05/07 03:58:40;;;;;;;;;;;17.50;55.00;;;;;;5005609;28;19925;-67
2023/05/07 04:01:05;;;;;;;;;;;17.50;55.00;;;;;;5006165;28;19911;-67
2023/05/07 04:03:31;;;;;;;;;;;17.50;55.00;;;;;;4988717;28;19918;-66
2023/05/07 04:05:56;;;;;;;;;;;17.50;54.90;;;;;;5006552;28;19961;-66
2023/05/07 04:08:21;;;;;;;;;;;17.50;55.00;;;;;;5007104;28;19918;-66
2023/05/07 04:10:47;;;;;;;;;;;17.60;54.90;;;;;;5009459;28;19924;-67
2023/05/07 04:13:12;;;;;;;;;;;17.60;55.00;;;;;;5009650;28;19918;-66
2023/05/07 04:15:38;;;;;;;;;;;17.50;55.00;;;;;;5010344;28;19914;-66
2023/05/07 04:18:03;;;;;;;;;;;17.60;55.10;;;;;;5010531;28;19929;-66
2023/05/07 04:20:29;;;;;;;;;;;17.50;55.10;;;;;;4991970;28;20292;-66
2023/05/07 04:22:55;;;;;;;;;;;17.50;55.00;;;;;;5010466;28;19918;-66
2023/05/07 04:25:20;;;;;;;;;;;17.60;55.00;;;;;;5010759;28;19909;-66
2023/05/07 04:27:46;;;;;;;;;;;17.60;54.90;;;;;;4991537;28;19917;-66
2023/05/07 04:30:12;;;;;;;;;;;17.60;54.90;;;;;;4990054;28;19922;-67
2023/05/07 04:32:37;;;;;;;;;;;17.60;54.90;;;;;;4995015;28;19918;-67
2023/05/07 04:35:03;;;;;;;;;;;17.70;54.80;;;;;;5017644;28;19956;-66
2023/05/07 04:37:28;;;;;;;;;;;17.70;54.80;;;;;;5011871;28;19917;-66
2023/05/07 04:39:54;;;;;;;;;;;17.60;54.80;;;;;;5013625;28;19934;-67
2023/05/07 04:42:19;;;;;;;;;;;17.70;54.70;;;;;;5010861;28;19969;-67
2023/05/07 04:44:45;;;;;;;;;;;17.60;54.70;;;;;;5010636;28;19909;-67
2023/05/07 04:47:11;;;;;;;;;;;17.70;54.80;;;;;;5010723;28;20453;-67
2023/05/07 04:49:37;;;;;;;;;;;17.60;54.80;;;;;;5009820;28;19922;-67
2023/05/07 04:52:03;;;;;;;;;;;17.70;54.90;;;;;;5009391;28;19986;-66
2023/05/07 04:54:28;;;;;;;;;;;17.60;54.80;;;;;;5009207;28;19926;-66
2023/05/07 04:56:54;;;;;;;;;;;17.70;54.80;;;;;;5008199;28;20395;-67
2023/05/07 04:59:19;;;;;;;;;;;17.70;54.70;;;;;;5008282;28;19941;-66
2023/05/07 05:01:45;;;;;;;;;;;17.70;54.70;;;;;;5008258;28;19981;-67
2023/05/07 05:04:10;;;;;;;;;;;17.70;54.70;;;;;;5007810;28;19964;-67
2023/05/07 05:06:35;;;;;;;;;;;17.70;54.70;;;;;;5009034;28;19920;-66
2023/05/07 05:09:01;;;;;;;;;;;17.80;54.60;;;;;;5009419;28;19953;-67
2023/05/07 05:11:26;;;;;;;;;;;17.80;54.60;;;;;;4990833;28;19914;-67
2023/05/07 05:13:52;;;;;;;;;;;17.90;54.50;;;;;;4991972;28;20006;-67
2023/05/07 05:16:17;;;;;;;;;;;17.90;54.50;;;;;;4997265;28;19925;-67
2023/05/07 05:18:43;;;;;;;;;;;17.80;54.60;;;;;;4986920;28;19981;-62
2023/05/07 05:21:08;;;;;;;;;;;17.90;54.40;;;;;;4990664;28;20377;-62
2023/05/07 05:23:33;;;;;;;;;;;18.00;54.40;;;;;;4981320;28;20346;-62
2023/05/07 05:25:59;;;;;;;;;;;18.00;54.20;;;;;;4986511;28;19914;-62
2023/05/07 05:28:24;;;;;;;;;;;18.10;54.20;;;;;;4975233;28;19919;-63
2023/05/07 05:30:50;;;;;;;;;;;18.10;54.10;;;;;;4987518;28;20016;-62
2023/05/07 05:33:16;;;;;;;;;;;18.20;54.10;;;;;;4981710;28;19918;-62
2023/05/07 05:35:41;;;;;;;;;;;18.20;54.00;;;;;;4998617;28;20404;-62
2023/05/07 05:38:07;;;;;;;;;;;18.30;53.80;;;;;;5000500;28;19925;-63
2023/05/07 05:40:33;;;;;;;;;;;18.30;53.70;;;;;;4983941;28;19917;-62
2023/05/07 05:42:58;;;;;;;;;;;18.30;53.60;;;;;;4992606;28;19984;-63
2023/05/07 05:45:24;;;;;;;;;;;18.40;53.50;;;;;;4993907;28;20396;-62
2023/05/07 05:47:49;;;;;;;;;;;18.50;53.40;;;;;;4994015;28;20293;-62
2023/05/07 05:50:15;;;;;;;;;;;18.50;53.30;;;;;;4993503;28;19920;-62
2023/05/07 05:52:40;;;;;;;;;;;18.50;53.20;;;;;;4991783;28;19924;-62
2023/05/07 05:55:06;;;;;;;;;;;18.60;53.00;;;;;;4993494;28;20377;-62
2023/05/07 05:57:31;;;;;;;;;;;18.70;52.80;;;;;;4993731;28;20278;-62
2023/05/07 05:59:57;;;;;;;;;;;18.70;52.70;;;;;;4993872;28;19921;-62
2023/05/07 06:02:22;;;;;;;;;;;18.80;52.50;;;;;;4993723;28;19918;-62
2023/05/07 06:04:48;;;;;;;;;;;18.90;52.20;;;;;;4993799;28;19943;-62
2023/05/07 06:07:13;;;;;;;;;;;19.00;52.30;;;;;;4993670;28;19968;-62
2023/05/07 06:09:39;;;;;;;;;;;19.10;52.10;;;;;;4992918;28;19965;-62
2023/05/07 06:12:04;;;;;;;;;;;19.20;51.90;;;;;;4979449;28;19922;-65
2023/05/07 06:14:30;;;;;;;;;;;19.30;51.70;;;;;;4976421;28;19924;-63
2023/05/07 06:16:55;;;;;;;;;;;19.30;51.50;;;;;;4993524;28;19918;-62
2023/05/07 06:19:23;;;;;;;;;;;19.60;51.40;;;;;;4992184;28;20020;-62
2023/05/07 06:21:49;;;;;;;;;;;19.70;50.90;;;;;;4992156;28;19924;-62
2023/05/07 06:24:14;;;;;;;;;;;19.80;50.40;;;;;;4976254;28;20028;-62
2023/05/07 06:26:40;;;;;;;;;;;19.90;50.00;;;;;;4990909;28;19914;-62
2023/05/07 06:29:05;;;;;;;;;;;20.00;49.70;;;;;;4983534;28;19922;-62
2023/05/07 06:31:31;;;;;;;;;;;20.00;49.60;;;;;;4992587;28;19910;-62
2023/05/07 06:33:57;;;;;;;;;;;20.20;49.50;;;;;;4990162;28;19930;-63
2023/05/07 06:36:22;;;;;;;;;;;20.20;49.40;;;;;;4979201;28;19918;-62
2023/05/07 06:38:48;;;;;;;;;;;20.30;49.20;;;;;;4987375;28;19941;-62
2023/05/07 06:41:13;;;;;;;;;;;20.40;48.90;;;;;;4968924;28;19920;-63
2023/05/07 06:43:39;;;;;;;;;;;20.50;48.60;;;;;;4993082;28;19956;-62
2023/05/07 06:46:05;;;;;;;;;;;20.60;48.20;;;;;;4974040;28;20015;-63
2023/05/07 06:48:30;;;;;;;;;;;20.70;47.90;;;;;;4973884;28;19980;-63
2023/05/07 06:50:57;;;;;;;;;;;20.70;47.70;;;;;;4993155;28;19921;-62
2023/05/07 06:53:23;;;;;;;;;;;20.70;47.80;;;;;;4993078;28;20007;-62
2023/05/07 06:55:48;;;;;;;;;;;20.70;47.80;;;;;;4992959;28;19953;-62
2023/05/07 06:58:14;;;;;;;;;;;20.80;47.40;;;;;;4992602;28;20012;-63
2023/05/07 07:00:40;;;;;;;;;;;20.80;47.10;;;;;;4993070;28;20369;-62
2023/05/07 07:03:06;;;;;;;;;;;20.90;47.10;;;;;;4992883;28;20396;-63
2023/05/07 07:05:31;;;;;;;;;;;21.00;47.10;;;;;;4992681;28;19909;-62
2023/05/07 07:07:57;;;;;;;;;;;21.20;47.00;;;;;;4992652;28;20440;-63
2023/05/07 07:10:22;;;;;;;;;;;21.30;46.80;;;;;;4991464;28;20428;-63
2023/05/07 07:12:48;;;;;;;;;;;21.30;46.60;;;;;;4985231;28;19926;-62
2023/05/07 07:15:14;;;;;;;;;;;21.60;46.50;;;;;;4991718;28;19909;-68
2023/05/07 07:17:39;;;;;;;;;;;21.90;46.00;;;;;;5009686;28;19918;-68
2023/05/07 07:20:05;;;;;;;;;;;22.10;45.70;;;;;;5003578;28;19921;-67
2023/05/07 07:22:30;;;;;;;;;;;22.40;45.40;;;;;;5010538;28;19911;-67
2023/05/07 07:24:56;;;;;;;;;;;22.70;44.90;;;;;;5006971;28;19914;-67
2023/05/07 07:27:21;;;;;;;;;;;22.90;44.10;;;;;;4995868;28;19910;-65
2023/05/07 07:29:47;;;;;;;;;;;23.20;43.10;;;;;;5006951;28;19925;-68
2023/05/07 07:32:12;;;;;;;;;;;23.50;41.90;;;;;;5015211;28;19918;-67
2023/05/07 07:34:37;;;;;;;;;;;23.50;40.90;;;;;;5015271;28;19910;-67
2023/05/07 07:37:05;;;;;;;;;;;23.50;41.30;;;;;;5014403;28;19925;-68
2023/05/07 07:39:34;;;;;;;;;;;23.70;41.10;;;;;;5014704;28;19973;-67
2023/05/07 07:42:00;;;;;;;;;;;23.80;40.50;;;;;;5004709;28;19898;-66
2023/05/07 07:44:26;;;;;;;;;;;23.70;40.40;;;;;;4997949;28;19950;-65
2023/05/07 07:46:51;;;;;;;;;;;23.60;40.30;;;;;;4980713;28;19981;-65
2023/05/07 07:49:17;;;;;;;;;;;23.50;40.20;;;;;;5004482;28;19944;-67
2023/05/07 07:51:42;;;;;;;;;;;23.30;40.30;;;;;;5018421;28;19956;-67
2023/05/07 07:54:08;;;;;;;;;;;23.20;40.50;;;;;;5000569;28;19957;-67
2023/05/07 07:56:34;;;;;;;;;;;23.20;40.70;;;;;;5018105;28;19910;-67
2023/05/07 07:58:59;;;;;;;;;;;23.20;41.00;;;;;;5017756;28;19918;-68
2023/05/07 08:01:25;;;;;;;;;;;23.10;41.10;;;;;;5017015;28;20357;-68
2023/05/07 08:03:51;;;;;;;;;;;23.10;41.10;;;;;;5034582;28;19929;-68
2023/05/07 08:06:16;;;;;;;;;;;23.10;41.10;;;;;;5000999;28;19914;-67
2023/05/07 08:08:42;;;;;;;;;;;23.20;41.30;;;;;;4997590;28;19950;-67
2023/05/07 08:11:07;;;;;;;;;;;23.20;41.40;;;;;;4998864;28;19929;-67
2023/05/07 08:13:32;;;;;;;;;;;23.40;41.40;;;;;;5004314;28;19921;-68
2023/05/07 08:15:58;;;;;;;;;;;23.50;41.00;;;;;;5030502;28;19980;-67
2023/05/07 08:18:25;;;;;;;;;;;23.60;40.90;;;;;;5013156;28;19921;-66
2023/05/07 08:20:59;;;;;;;;;;;23.80;40.80;;;;;;5010309;28;19918;-67
2023/05/07 08:23:24;;;;;;;;;;;23.80;40.30;;;;;;4994907;28;20469;-67
2023/05/07 08:25:51;;;;;;;;;;;23.90;40.10;;;;;;5021708;28;19902;-67
2023/05/07 08:28:16;;;;;;;;;;;24.00;40.00;;;;;;5016200;28;19945;-67
2023/05/07 08:30:41;;;;;;;;;;;24.20;39.50;;;;;;4997194;28;19942;-67
2023/05/07 08:33:08;;;;;;;;;;;24.20;39.20;;;;;;5024446;28;20170;-66
2023/05/07 08:35:34;;;;;;;;;;;24.20;39.50;;;;;;5037434;28;19932;-67
2023/05/07 08:37:59;;;;;;;;;;;24.40;39.70;;;;;;5035560;28;19917;-68
2023/05/07 08:40:26;;;;;;;;;;;24.70;39.00;;;;;;5022109;28;20312;-68
2023/05/07 08:42:52;;;;;;;;;;;24.90;38.60;;;;;;5028879;28;19913;-67
2023/05/07 08:45:18;;;;;;;;;;;25.20;38.10;;;;;;5024418;28;19928;-67
2023/05/07 08:47:45;;;;;;;;;;;25.30;37.60;;;;;;5027486;28;19929;-67
2023/05/07 08:50:11;;;;;;;;;;;25.50;37.30;;;;;;5028779;28;19918;-67
2023/05/07 08:52:37;;;;;;;;;;;25.60;37.30;;;;;;5015673;28;19918;-67
2023/05/07 08:55:02;;;;;;;;;;;25.70;36.70;;;;;;5020364;28;19941;-67
2023/05/07 08:57:28;;;;;;;;;;;25.80;36.60;;;;;;5021427;28;20881;-67
2023/05/07 08:59:53;;;;;;;;;;;25.70;36.50;;;;;;5013932;28;19936;-67
2023/05/07 09:02:19;;;;;;;;;;;25.80;36.50;;;;;;5015406;28;19910;-67
2023/05/07 09:04:44;;;;;;;;;;;25.70;36.10;;;;;;5015646;28;19914;-67
2023/05/07 09:07:10;;;;;;;;;;;25.50;36.40;;;;;;5016678;28;19932;-67
2023/05/07 09:09:35;;;;;;;;;;;25.50;36.70;;;;;;5012674;28;19929;-67
2023/05/07 09:12:01;;;;;;;;;;;25.30;36.70;;;;;;5022983;28;19913;-67
2023/05/07 09:14:27;;;;;;;;;;;25.30;37.00;;;;;;5022901;28;19918;-67
2023/05/07 09:16:53;;;;;;;;;;;25.40;37.00;;;;;;5014099;28;19905;-67
2023/05/07 09:19:22;;;;;;;;;;;25.40;36.90;;;;;;5013614;28;19925;-67
2023/05/07 09:21:47;;;;;;;;;;;25.50;36.90;;;;;;5014161;28;19925;-67
2023/05/07 09:24:14;;;;;;;;;;;25.70;36.60;;;;;;5012696;28;20085;-69
2023/05/07 09:26:40;;;;;;;;;;;25.80;36.40;;;;;;5007693;28;19964;-67
2023/05/07 09:29:06;;;;;;;;;;;25.80;36.30;;;;;;5007826;28;19922;-68
2023/05/07 09:31:31;;;;;;;;;;;26.00;36.30;;;;;;5009487;28;19913;-68
2023/05/07 09:33:57;;;;;;;;;;;26.20;36.30;;;;;;5008161;28;19972;-69
2023/05/07 09:36:22;;;;;;;;;;;26.40;35.80;;;;;;4993627;28;19914;-68
2023/05/07 09:38:49;;;;;;;;;;;26.60;35.50;;;;;;5004105;28;19926;-68
2023/05/07 09:41:14;;;;;;;;;;;26.70;35.10;;;;;;4998127;28;20262;-68
2023/05/07 09:43:40;;;;;;;;;;;26.70;35.00;;;;;;5009216;28;19922;-68
2023/05/07 09:46:07;;;;;;;;;;;26.70;34.80;;;;;;5008709;28;20004;-68
2023/05/07 09:48:37;;;;;;;;;;;26.70;35.30;;;;;;5006973;28;19922;-68
2023/05/07 09:51:06;;;;;;;;;;;26.90;35.20;;;;;;5005513;28;19929;-68
2023/05/07 09:53:33;;;;;;;;;;;27.00;34.50;;;;;;5023355;28;20266;-68
2023/05/07 09:55:59;;;;;;;;;;;26.80;34.60;;;;;;5020869;28;19913;-66
2023/05/07 09:58:25;;;;;;;;;;;26.90;34.70;;;;;;5004938;28;19917;-66
2023/05/07 10:00:51;;;;;;;;;;;27.10;34.60;;;;;;5014526;28;19915;-67
2023/05/07 10:03:18;;;;;;;;;;;27.20;34.40;;;;;;4989008;28;19918;-68
2023/05/07 10:05:44;;;;;;;;;;;27.50;34.40;;;;;;4993203;28;20349;-69
2023/05/07 10:08:09;;;;;;;;;;;27.80;33.80;;;;;;5008670;28;20012;-69
2023/05/07 10:10:35;;;;;;;;;;;27.70;33.50;;;;;;4998512;28;19984;-69
2023/05/07 10:13:02;;;;;;;;;;;27.70;33.80;;;;;;4999715;28;19918;-69
2023/05/07 10:15:28;;;;;;;;;;;27.80;33.50;;;;;;4995439;28;19913;-69
2023/05/07 10:17:54;;;;;;;;;;;27.70;33.30;;;;;;5010395;28;19941;-68
2023/05/07 10:20:20;;;;;;;;;;;27.70;33.30;;;;;;5008279;28;19977;-68
2023/05/07 10:22:47;;;;;;;;;;;27.90;33.40;;;;;;4990341;28;20299;-67
2023/05/07 10:25:15;;;;;;;;;;;28.10;32.70;;;;;;4991334;28;19914;-69
2023/05/07 10:27:41;;;;;;;;;;;28.30;32.70;;;;;;5008910;28;19918;-69
2023/05/07 10:30:14;;;;;;;;;;;28.60;32.60;;;;;;5007698;28;19925;-69
2023/05/07 10:32:40;;;;;;;;;;;29.00;32.00;;;;;;4989352;28;19918;-69
2023/05/07 10:35:09;;;;;;;;;;;29.30;31.70;;;;;;4994437;28;19929;-66
2023/05/07 10:37:34;;;;;;;;;;;29.50;31.30;;;;;;5004957;28;19945;-67
2023/05/07 10:40:00;;;;;;;;;;;29.60;30.70;;;;;;5003815;28;19917;-68
2023/05/07 10:42:26;;;;;;;;;;;29.70;30.40;;;;;;5000732;28;19910;-68
2023/05/07 10:44:51;;;;;;;;;;;29.70;30.60;;;;;;4989379;28;19985;-68
2023/05/07 10:47:18;;;;;;;;;;;29.60;30.50;;;;;;5002511;28;19925;-66
2023/05/07 10:49:43;;;;;;;;;;;29.80;30.60;;;;;;5008136;28;20365;-62
2023/05/07 10:52:13;;;;;;;;;;;29.70;30.20;;;;;;4992896;28;19914;-62
2023/05/07 10:54:38;;;;;;;;;;;29.70;30.50;;;;;;4992743;28;19921;-61
2023/05/07 10:57:22;;;;;;;;;;;29.80;30.70;;;;;;4974389;28;20333;-61
2023/05/07 10:59:48;;;;;;;;;;;30.10;30.60;;;;;;4993502;28;19921;-62
2023/05/07 11:02:15;;;;;;;;;;;30.50;30.30;;;;;;4982928;28;19925;-63
2023/05/07 11:04:41;;;;;;;;;;;30.60;29.70;;;;;;4995946;28;19959;-63
2023/05/07 11:07:09;;;;;;;;;;;30.70;29.50;;;;;;4991461;28;20354;-63
2023/05/07 11:09:58;;;;;;;;;;;30.70;29.40;;;;;;4981608;28;20376;-62
2023/05/07 11:12:35;;;;;;;;;;;30.70;29.60;;;;;;4985186;28;19938;-62
2023/05/07 11:15:04;;;;;;;;;;;30.80;29.50;;;;;;4995159;28;19914;-62
2023/05/07 11:17:34;;;;;;;;;;;30.80;29.20;;;;;;4990168;28;19925;-62
2023/05/07 11:20:00;;;;;;;;;;;30.90;29.30;;;;;;4994831;28;19928;-62
2023/05/07 11:22:31;;;;;;;;;;;30.90;29.40;;;;;;4990091;28;19921;-64
2023/05/07 11:24:59;;;;;;;;;;;30.70;28.70;;;;;;4994651;28;19932;-62
2023/05/07 11:27:25;;;;;;;;;;;30.40;29.40;;;;;;4991345;28;19917;-63
2023/05/07 11:29:50;;;;;;;;;;;30.20;29.70;;;;;;4982392;28;20378;-62
2023/05/07 11:32:22;;;;;;;;;;;30.10;30.30;;;;;;4986957;28;20565;-62
2023/05/07 11:34:51;;;;;;;;;;;30.20;30.50;;;;;;4988075;28;19921;-62
2023/05/07 11:37:17;;;;;;;;;;;30.30;30.20;;;;;;4986317;28;19937;-65
2023/05/07 11:39:42;;;;;;;;;;;30.30;30.10;;;;;;4990154;28;19913;-61
2023/05/07 11:42:24;;;;;;;;;;;30.00;30.00;;;;;;4992059;28;20012;-62
2023/05/07 11:44:50;;;;;;;;;;;29.80;30.50;;;;;;4983450;28;19926;-61
2023/05/07 11:47:20;;;;;;;;;;;30.10;30.40;;;;;;4983276;28;19922;-64
2023/05/07 11:49:50;;;;;;;;;;;30.50;30.10;;;;;;4984808;28;19918;-62
2023/05/07 11:52:16;;;;;;;;;;;30.70;29.80;;;;;;4986268;28;19917;-64
2023/05/07 11:54:41;;;;;;;;;;;30.90;29.00;;;;;;4982761;28;19910;-62
2023/05/07 11:57:14;;;;;;;;;;;31.10;29.40;;;;;;4990506;28;20023;-62
2023/05/07 11:59:40;;;;;;;;;;;31.30;28.80;;;;;;4998962;28;20336;-62
2023/05/07 12:02:06;;;;;;;;;;;31.10;28.40;;;;;;4987724;28;19948;-62
2023/05/07 12:04:31;;;;;;;;;;;30.60;28.70;;;;;;4987911;28;19945;-62
2023/05/07 12:06:56;;;;;;;;;;;30.20;29.30;;;;;;4990962;28;20804;-62
2023/05/07 12:09:22;;;;;;;;;;;30.10;29.80;;;;;;4998147;28;19925;-63
2023/05/07 12:11:48;;;;;;;;;;;30.10;29.80;;;;;;4985983;28;20013;-62
2023/05/07 12:14:15;;;;;;;;;;;30.10;30.00;;;;;;4987761;28;19930;-62
2023/05/07 12:16:41;;;;;;;;;;;30.10;29.80;;;;;;4981045;28;20396;-62
2023/05/07 12:19:08;;;;;;;;;;;30.10;29.70;;;;;;4998786;28;19953;-61
2023/05/07 12:21:34;;;;;;;;;;;30.10;29.70;;;;;;4986775;28;20427;-63
2023/05/07 12:24:00;;;;;;;;;;;30.20;30.00;;;;;;4980353;28;20001;-62
2023/05/07 12:26:25;;;;;;;;;;;30.40;29.60;;;;;;4985016;28;19914;-63
2023/05/07 12:28:51;;;;;;;;;;;30.50;29.30;;;;;;4998648;28;19917;-62
2023/05/07 12:31:16;;;;;;;;;;;30.30;29.40;;;;;;4994085;28;20251;-63
2023/05/07 12:33:42;;;;;;;;;;;30.10;29.60;;;;;;4992490;28;19941;-61
2023/05/07 12:36:08;;;;;;;;;;;29.80;29.80;;;;;;4993453;28;19917;-62
2023/05/07 12:38:40;;;;;;;;;;;29.50;30.20;;;;;;5002078;28;20043;-61
2023/05/07 12:41:07;;;;;;;;;;;29.50;30.50;;;;;;4993996;28;20392;-62
2023/05/07 12:43:32;;;;;;;;;;;29.50;30.60;;;;;;4991263;28;19917;-63
2023/05/07 12:46:00;;;;;;;;;;;29.40;30.40;;;;;;4994359;28;20300;-63
2023/05/07 12:48:28;;;;;;;;;;;29.10;30.70;;;;;;4994566;28;19922;-62
2023/05/07 12:50:54;;;;;;;;;;;28.80;30.90;;;;;;4981361;28;19918;-62
2023/05/07 12:53:20;;;;;;;;;;;28.70;31.20;;;;;;4997858;28;19917;-62
2023/05/07 12:55:47;;;;;;;;;;;28.40;31.90;;;;;;5000440;28;19913;-62
2023/05/07 12:58:20;;;;;;;;;;;28.20;32.30;;;;;;4994052;28;19918;-62
2023/05/07 13:00:47;;;;;;;;;;;28.30;32.50;;;;;;4994830;28;20391;-62
2023/05/07 13:03:20;;;;;;;;;;;28.30;32.30;;;;;;4988346;28;19929;-62
2023/05/07 13:05:45;;;;;;;;;;;28.40;32.20;;;;;;4993104;28;19918;-62
2023/05/07 13:08:11;;;;;;;;;;;28.40;32.20;;;;;;4993806;28;20032;-63
2023/05/07 13:10:36;;;;;;;;;;;28.30;32.20;;;;;;4995008;28;20444;-62
2023/05/07 13:13:02;;;;;;;;;;;28.40;32.30;;;;;;4995009;28;19975;-63
2023/05/07 13:15:28;;;;;;;;;;;28.50;32.60;;;;;;5001652;28;19922;-64
2023/05/07 13:17:53;;;;;;;;;;;28.60;32.10;;;;;;4983409;28;19965;-63
2023/05/07 13:20:19;;;;;;;;;;;28.60;32.00;;;;;;4993705;28;19914;-62
2023/05/07 13:22:44;;;;;;;;;;;28.70;32.00;;;;;;4988513;28;20162;-64
2023/05/07 13:25:10;;;;;;;;;;;28.70;31.80;;;;;;5001373;28;19969;-62
2023/05/07 13:27:36;;;;;;;;;;;28.60;31.80;;;;;;4983943;28;19944;-63
2023/05/07 13:30:02;;;;;;;;;;;28.60;31.70;;;;;;4992889;28;20369;-63
2023/05/07 13:32:28;;;;;;;;;;;28.60;31.50;;;;;;4991130;28;20439;-63
2023/05/07 13:34:53;;;;;;;;;;;28.60;32.00;;;;;;4991260;28;19956;-64
2023/05/07 13:37:20;;;;;;;;;;;28.70;31.70;;;;;;4994798;28;19910;-65
2023/05/07 13:39:45;;;;;;;;;;;28.80;31.60;;;;;;4993512;28;20342;-63
2023/05/07 13:42:11;;;;;;;;;;;28.70;31.30;;;;;;4988280;28;19969;-63
2023/05/07 13:44:36;;;;;;;;;;;28.50;31.50;;;;;;4989562;28;19965;-62
2023/05/07 13:47:01;;;;;;;;;;;28.60;31.60;;;;;;4994953;28;19933;-63
2023/05/07 13:49:27;;;;;;;;;;;28.30;31.80;;;;;;4990838;28;19922;-63
2023/05/07 13:51:52;;;;;;;;;;;28.30;32.00;;;;;;4994610;28;20318;-64
2023/05/07 13:54:18;;;;;;;;;;;28.30;32.10;;;;;;4996573;28;20297;-63
2023/05/07 13:56:43;;;;;;;;;;;28.30;32.20;;;;;;4994998;28;19917;-63
2023/05/07 13:59:09;;;;;;;;;;;28.30;32.30;;;;;;4993332;28;19925;-62
2023/05/07 14:01:34;;;;;;;;;;;28.40;32.20;;;;;;4998145;28;19940;-63
2023/05/07 14:04:00;;;;;;;;;;;28.30;31.90;;;;;;4989286;28;19988;-64
2023/05/07 14:06:25;;;;;;;;;;;28.20;32.30;;;;;;4994269;28;19916;-63
2023/05/07 14:08:51;;;;;;;;;;;28.00;32.40;;;;;;4993167;28;20004;-63